createdAt,value
2022-10-02T00:05:49.848Z,9.25
2022-10-02T00:15:57.281Z,9.28
2022-10-02T00:26:09.032Z,9.32
2022-10-02T00:36:27.289Z,9.37
2022-10-02T00:46:45.021Z,9.45
2022-10-02T00:57:01.312Z,9.51
2022-10-02T01:07:09.935Z,9.54
2022-10-02T01:17:25.738Z,9.59
2022-10-02T01:27:33.654Z,9.65
2022-10-02T01:37:45.544Z,9.71
2022-10-02T01:48:02.819Z,9.72
2022-10-02T01:58:22.343Z,9.70
2022-10-02T02:08:35.383Z,9.70
2022-10-02T02:18:47.638Z,9.73
2022-10-02T02:28:58.201Z,9.68
2022-10-02T02:39:08.120Z,9.65
2022-10-02T02:49:15.040Z,9.62
2022-10-02T02:59:24.235Z,9.57
2022-10-02T03:09:33.467Z,9.56
2022-10-02T03:19:48.233Z,9.57
2022-10-02T03:30:01.232Z,9.59
2022-10-02T03:40:09.443Z,9.60
2022-10-02T03:50:16.358Z,9.61
2022-10-02T04:00:25.607Z,9.62
2022-10-02T04:10:37.961Z,9.63
2022-10-02T04:20:51.568Z,9.65
2022-10-02T04:30:58.168Z,9.68
2022-10-02T04:41:18.710Z,9.68
2022-10-02T04:51:39.672Z,9.68
2022-10-02T05:01:59.781Z,9.65
2022-10-02T05:12:25.458Z,9.62
2022-10-02T05:22:46.322Z,9.64
2022-10-02T05:33:25.319Z,9.69
2022-10-02T05:43:38.084Z,9.78
2022-10-02T05:53:48.851Z,9.90
2022-10-02T06:04:02.999Z,10.11
2022-10-02T06:14:15.617Z,10.32
2022-10-02T06:24:26.611Z,10.61
2022-10-02T06:34:32.316Z,10.86
2022-10-02T06:44:47.663Z,11.85
2022-10-02T06:55:08.959Z,11.60
2022-10-02T07:05:41.113Z,11.32
2022-10-02T07:16:12.841Z,11.18
2022-10-02T07:26:47.891Z,11.23
2022-10-02T07:37:07.277Z,11.41
2022-10-02T07:47:23.884Z,11.62
2022-10-02T07:57:39.622Z,12.15
2022-10-02T08:07:50.788Z,12.64
2022-10-02T08:18:16.398Z,12.45
2022-10-02T08:28:30.419Z,12.24
2022-10-02T08:38:42.421Z,12.59
2022-10-02T08:49:29.804Z,12.91
2022-10-02T09:00:09.672Z,13.18
2022-10-02T09:10:59.163Z,14.85
2022-10-02T09:21:17.870Z,15.00
2022-10-02T09:32:07.676Z,14.97
2022-10-02T09:42:35.807Z,15.42
2022-10-02T09:53:11.298Z,15.30
2022-10-02T10:03:43.662Z,15.54
2022-10-02T10:14:21.826Z,15.61
2022-10-02T10:24:45.884Z,15.50
2022-10-02T10:35:21.556Z,15.49
2022-10-02T10:45:42.884Z,15.54
2022-10-02T10:56:19.492Z,14.95
2022-10-02T11:06:41.822Z,14.74
2022-10-02T11:17:09.147Z,14.59
2022-10-02T11:27:32.104Z,14.32
2022-10-02T11:37:54.545Z,13.74
2022-10-02T11:48:33.422Z,13.47
2022-10-02T11:58:55.130Z,14.23
2022-10-02T12:09:11.503Z,14.43
2022-10-02T12:19:40.053Z,14.56
2022-10-02T12:30:04.191Z,14.55
2022-10-02T12:40:22.260Z,15.14
2022-10-02T12:50:42.049Z,15.13
2022-10-02T13:01:15.295Z,14.92
2022-10-02T13:11:32.988Z,14.72
2022-10-02T13:21:51.858Z,14.85
2022-10-02T13:32:08.474Z,14.90
2022-10-02T13:42:30.161Z,14.41
2022-10-02T13:52:49.957Z,14.13
2022-10-02T14:03:09.913Z,14.11
2022-10-02T14:13:33.895Z,13.96
2022-10-02T14:23:55.590Z,14.05
2022-10-02T14:34:20.797Z,13.97
2022-10-02T14:44:45.705Z,14.01
2022-10-02T14:55:17.131Z,14.05
2022-10-02T15:05:40.043Z,13.82
2022-10-02T15:16:11.505Z,13.57
2022-10-02T15:26:33.230Z,13.47
2022-10-02T15:36:52.429Z,13.06
2022-10-02T15:47:10.430Z,12.53
2022-10-02T15:57:28.859Z,11.89
2022-10-02T16:07:57.980Z,11.42
2022-10-02T16:18:25.606Z,11.10
2022-10-02T16:28:43.812Z,10.83
2022-10-02T16:38:59.773Z,10.71
2022-10-02T16:49:20.108Z,10.57
2022-10-02T16:59:29.363Z,10.37
2022-10-02T17:09:45.219Z,10.29
2022-10-02T17:19:54.743Z,10.31
2022-10-02T17:30:09.258Z,10.29
2022-10-02T17:40:20.020Z,10.26
2022-10-02T17:51:00.379Z,10.27
2022-10-02T18:01:13.867Z,10.29
2022-10-02T18:11:38.114Z,10.33
2022-10-02T18:21:53.893Z,10.11
2022-10-02T18:32:15.323Z,9.96
2022-10-02T18:42:41.026Z,9.91
2022-10-02T18:53:15.414Z,9.86
2022-10-02T19:03:32.040Z,9.82
2022-10-02T19:13:43.365Z,9.56
2022-10-02T19:23:53.674Z,9.39
2022-10-02T19:34:03.516Z,9.16
2022-10-02T19:44:19.713Z,9.00
2022-10-02T19:54:31.869Z,9.02
2022-10-02T20:04:37.780Z,9.07
2022-10-02T20:14:47.654Z,9.12
2022-10-02T20:25:00.851Z,9.11
2022-10-02T20:35:12.903Z,9.09
2022-10-02T20:45:19.756Z,8.90
2022-10-02T20:55:35.785Z,8.67
2022-10-02T21:06:08.484Z,8.41
2022-10-02T21:16:44.540Z,8.19
2022-10-02T21:27:20.405Z,7.97
2022-10-02T21:37:36.747Z,7.76
2022-10-02T21:48:16.039Z,7.55
2022-10-02T21:58:59.320Z,7.52
2022-10-02T22:09:27.667Z,7.73
2022-10-02T22:19:58.013Z,7.91
2022-10-02T22:30:04.339Z,7.82
2022-10-02T22:40:15.467Z,7.92
2022-10-02T22:50:30.515Z,8.02
2022-10-02T23:00:51.196Z,7.89
2022-10-02T23:11:05.907Z,7.73
2022-10-02T23:21:26.053Z,7.62
2022-10-02T23:31:38.288Z,7.57
2022-10-02T23:41:52.143Z,7.83
2022-10-02T23:52:14.563Z,8.08
